sensor_id;sensor_type;location;lat;lon;timestamp;P1;durP1;ratioP1;P2;durP2;ratioP2
23590;SDS011;11973;52.098;7.582;2022-08-21T00:01:03;4.95;;;3.58;;
23590;SDS011;11973;52.098;7.582;2022-08-21T00:03:35;4.32;;;3.53;;
23590;SDS011;11973;52.098;7.582;2022-08-21T00:06:01;3.90;;;3.65;;
23590;SDS011;11973;52.098;7.582;2022-08-21T00:08:27;3.72;;;3.53;;
23590;SDS011;11973;52.098;7.582;2022-08-21T00:10:53;3.97;;;3.78;;
23590;SDS011;11973;52.098;7.582;2022-08-21T00:13:19;3.95;;;3.58;;
23590;SDS011;11973;52.098;7.582;2022-08-21T00:15:45;6.40;;;3.35;;
23590;SDS011;11973;52.098;7.582;2022-08-21T00:18:12;3.80;;;3.60;;
23590;SDS011;11973;52.098;7.582;2022-08-21T00:20:38;5.32;;;3.60;;
23590;SDS011;11973;52.098;7.582;2022-08-21T00:23:05;3.33;;;3.22;;
23590;SDS011;11973;52.098;7.582;2022-08-21T00:25:32;3.58;;;3.38;;
23590;SDS011;11973;52.098;7.582;2022-08-21T00:27:58;3.33;;;3.22;;
23590;SDS011;11973;52.098;7.582;2022-08-21T00:30:25;3.70;;;3.47;;
23590;SDS011;11973;52.098;7.582;2022-08-21T00:32:52;3.60;;;3.40;;
23590;SDS011;11973;52.098;7.582;2022-08-21T00:35:20;4.38;;;4.03;;
23590;SDS011;11973;52.098;7.582;2022-08-21T00:37:49;5.30;;;4.50;;
23590;SDS011;11973;52.098;7.582;2022-08-21T00:40:17;6.00;;;4.47;;
23590;SDS011;11973;52.098;7.582;2022-08-21T00:42:46;5.00;;;4.47;;
23590;SDS011;11973;52.098;7.582;2022-08-21T00:45:12;4.85;;;4.00;;
23590;SDS011;11973;52.098;7.582;2022-08-21T00:47:38;4.32;;;4.03;;
23590;SDS011;11973;52.098;7.582;2022-08-21T00:50:05;4.15;;;3.83;;
23590;SDS011;11973;52.098;7.582;2022-08-21T00:52:34;4.60;;;4.20;;
23590;SDS011;11973;52.098;7.582;2022-08-21T00:55:02;4.45;;;4.05;;
23590;SDS011;11973;52.098;7.582;2022-08-21T00:57:34;5.40;;;4.03;;
23590;SDS011;11973;52.098;7.582;2022-08-21T01:00:05;4.15;;;3.95;;
23590;SDS011;11973;52.098;7.582;2022-08-21T01:02:33;6.35;;;3.88;;
23590;SDS011;11973;52.098;7.582;2022-08-21T01:04:59;4.45;;;4.15;;
23590;SDS011;11973;52.098;7.582;2022-08-21T01:07:25;4.65;;;4.35;;
23590;SDS011;11973;52.098;7.582;2022-08-21T01:09:51;5.35;;;4.95;;
23590;SDS011;11973;52.098;7.582;2022-08-21T01:12:17;4.68;;;4.43;;
23590;SDS011;11973;52.098;7.582;2022-08-21T01:14:43;5.22;;;4.63;;
23590;SDS011;11973;52.098;7.582;2022-08-21T01:17:10;5.53;;;5.05;;
23590;SDS011;11973;52.098;7.582;2022-08-21T01:19:38;5.38;;;4.93;;
23590;SDS011;11973;52.098;7.582;2022-08-21T01:22:04;4.70;;;4.50;;
23590;SDS011;11973;52.098;7.582;2022-08-21T01:24:31;5.50;;;5.00;;
23590;SDS011;11973;52.098;7.582;2022-08-21T01:26:57;6.15;;;5.47;;
23590;SDS011;11973;52.098;7.582;2022-08-21T01:32:17;5.60;;;5.20;;
23590;SDS011;11973;52.098;7.582;2022-08-21T01:34:44;5.97;;;5.50;;
23590;SDS011;11973;52.098;7.582;2022-08-21T01:37:11;5.40;;;4.85;;
23590;SDS011;11973;52.098;7.582;2022-08-21T01:39:38;5.25;;;4.75;;
23590;SDS011;11973;52.098;7.582;2022-08-21T01:42:04;4.68;;;4.47;;
23590;SDS011;11973;52.098;7.582;2022-08-21T01:44:31;5.18;;;4.78;;
23590;SDS011;11973;52.098;7.582;2022-08-21T01:46:57;5.82;;;5.30;;
23590;SDS011;11973;52.098;7.582;2022-08-21T01:49:25;5.38;;;4.88;;
23590;SDS011;11973;52.098;7.582;2022-08-21T01:51:52;5.75;;;5.22;;
23590;SDS011;11973;52.098;7.582;2022-08-21T01:54:18;6.47;;;5.10;;
23590;SDS011;11973;52.098;7.582;2022-08-21T01:56:45;5.22;;;4.78;;
23590;SDS011;11973;52.098;7.582;2022-08-21T01:59:13;5.15;;;4.78;;
23590;SDS011;11973;52.098;7.582;2022-08-21T02:01:39;5.75;;;5.30;;
23590;SDS011;11973;52.098;7.582;2022-08-21T02:04:05;5.25;;;4.90;;
23590;SDS011;11973;52.098;7.582;2022-08-21T02:06:32;4.80;;;4.70;;
23590;SDS011;11973;52.098;7.582;2022-08-21T02:08:58;7.32;;;6.60;;
23590;SDS011;11973;52.098;7.582;2022-08-21T02:11:24;8.55;;;5.95;;
23590;SDS011;11973;52.098;7.582;2022-08-21T02:13:49;6.88;;;6.40;;
23590;SDS011;11973;52.098;7.582;2022-08-21T02:16:15;6.75;;;6.35;;
23590;SDS011;11973;52.098;7.582;2022-08-21T02:18:41;6.93;;;6.45;;
23590;SDS011;11973;52.098;7.582;2022-08-21T02:21:07;6.68;;;6.13;;
23590;SDS011;11973;52.098;7.582;2022-08-21T02:23:33;6.63;;;6.22;;
23590;SDS011;11973;52.098;7.582;2022-08-21T02:26:00;7.47;;;6.90;;
23590;SDS011;11973;52.098;7.582;2022-08-21T02:28:27;6.97;;;6.30;;
23590;SDS011;11973;52.098;7.582;2022-08-21T02:30:53;7.20;;;6.63;;
23590;SDS011;11973;52.098;7.582;2022-08-21T02:33:21;6.35;;;6.07;;
23590;SDS011;11973;52.098;7.582;2022-08-21T02:35:48;6.03;;;5.72;;
23590;SDS011;11973;52.098;7.582;2022-08-21T02:38:17;5.50;;;5.30;;
23590;SDS011;11973;52.098;7.582;2022-08-21T02:40:47;6.25;;;5.85;;
23590;SDS011;11973;52.098;7.582;2022-08-21T02:43:14;6.28;;;5.80;;
23590;SDS011;11973;52.098;7.582;2022-08-21T02:45:41;6.03;;;5.55;;
23590;SDS011;11973;52.098;7.582;2022-08-21T02:48:09;5.60;;;5.38;;
23590;SDS011;11973;52.098;7.582;2022-08-21T02:50:38;5.63;;;5.43;;
23590;SDS011;11973;52.098;7.582;2022-08-21T02:53:09;5.05;;;4.85;;
23590;SDS011;11973;52.098;7.582;2022-08-21T02:55:39;5.15;;;4.95;;
23590;SDS011;11973;52.098;7.582;2022-08-21T02:58:05;6.20;;;5.68;;
23590;SDS011;11973;52.098;7.582;2022-08-21T03:00:33;5.22;;;4.95;;
23590;SDS011;11973;52.098;7.582;2022-08-21T03:03:01;5.78;;;5.30;;
23590;SDS011;11973;52.098;7.582;2022-08-21T03:05:27;5.50;;;5.20;;
23590;SDS011;11973;52.098;7.582;2022-08-21T03:07:56;7.93;;;5.30;;
23590;SDS011;11973;52.098;7.582;2022-08-21T03:10:23;5.32;;;5.13;;
23590;SDS011;11973;52.098;7.582;2022-08-21T03:12:50;5.57;;;5.18;;
23590;SDS011;11973;52.098;7.582;2022-08-21T03:15:17;6.90;;;6.40;;
23590;SDS011;11973;52.098;7.582;2022-08-21T03:17:46;6.53;;;6.10;;
23590;SDS011;11973;52.098;7.582;2022-08-21T03:20:13;7.07;;;6.65;;
23590;SDS011;11973;52.098;7.582;2022-08-21T03:22:41;6.47;;;6.10;;
23590;SDS011;11973;52.098;7.582;2022-08-21T03:25:07;7.18;;;6.65;;
23590;SDS011;11973;52.098;7.582;2022-08-21T03:27:33;6.88;;;6.30;;
23590;SDS011;11973;52.098;7.582;2022-08-21T03:30:00;6.65;;;6.18;;
23590;SDS011;11973;52.098;7.582;2022-08-21T03:32:26;6.93;;;6.20;;
23590;SDS011;11973;52.098;7.582;2022-08-21T03:34:52;6.25;;;5.82;;
23590;SDS011;11973;52.098;7.582;2022-08-21T03:37:18;5.97;;;5.68;;
23590;SDS011;11973;52.098;7.582;2022-08-21T03:39:43;6.43;;;5.85;;
23590;SDS011;11973;52.098;7.582;2022-08-21T03:42:10;6.75;;;6.35;;
23590;SDS011;11973;52.098;7.582;2022-08-21T03:44:36;6.63;;;6.22;;
23590;SDS011;11973;52.098;7.582;2022-08-21T03:47:03;7.63;;;7.00;;
23590;SDS011;11973;52.098;7.582;2022-08-21T03:49:29;7.05;;;6.70;;
23590;SDS011;11973;52.098;7.582;2022-08-21T03:51:54;6.97;;;6.53;;
23590;SDS011;11973;52.098;7.582;2022-08-21T03:54:20;7.88;;;7.13;;
23590;SDS011;11973;52.098;7.582;2022-08-21T03:56:46;7.43;;;7.00;;
23590;SDS011;11973;52.098;7.582;2022-08-21T03:59:12;7.45;;;7.10;;
23590;SDS011;11973;52.098;7.582;2022-08-21T04:01:38;7.57;;;7.28;;
23590;SDS011;11973;52.098;7.582;2022-08-21T04:04:04;7.60;;;7.18;;
23590;SDS011;11973;52.098;7.582;2022-08-21T04:06:30;7.70;;;7.20;;
23590;SDS011;11973;52.098;7.582;2022-08-21T04:08:56;7.57;;;7.15;;
23590;SDS011;11973;52.098;7.582;2022-08-21T04:11:23;7.95;;;7.25;;
23590;SDS011;11973;52.098;7.582;2022-08-21T04:13:48;6.70;;;6.40;;
23590;SDS011;11973;52.098;7.582;2022-08-21T05:15:38;7.60;;;7.20;;
23590;SDS011;11973;52.098;7.582;2022-08-21T05:18:05;8.23;;;7.55;;
23590;SDS011;11973;52.098;7.582;2022-08-21T05:20:32;7.95;;;7.55;;
23590;SDS011;11973;52.098;7.582;2022-08-21T05:22:59;8.25;;;7.85;;
23590;SDS011;11973;52.098;7.582;2022-08-21T05:25:26;8.35;;;7.85;;
23590;SDS011;11973;52.098;7.582;2022-08-21T05:27:52;8.00;;;7.65;;
23590;SDS011;11973;52.098;7.582;2022-08-21T05:30:19;8.70;;;8.18;;
23590;SDS011;11973;52.098;7.582;2022-08-21T05:32:45;8.52;;;8.13;;
23590;SDS011;11973;52.098;7.582;2022-08-21T05:35:12;8.68;;;8.15;;
23590;SDS011;11973;52.098;7.582;2022-08-21T05:37:38;8.52;;;8.00;;
23590;SDS011;11973;52.098;7.582;2022-08-21T05:40:04;9.23;;;8.27;;
23590;SDS011;11973;52.098;7.582;2022-08-21T05:42:31;8.80;;;8.02;;
23590;SDS011;11973;52.098;7.582;2022-08-21T05:44:57;8.20;;;7.60;;
23590;SDS011;11973;52.098;7.582;2022-08-21T05:47:23;8.32;;;7.63;;
23590;SDS011;11973;52.098;7.582;2022-08-21T05:49:48;8.35;;;7.75;;
23590;SDS011;11973;52.098;7.582;2022-08-21T05:52:18;8.35;;;7.75;;
23590;SDS011;11973;52.098;7.582;2022-08-21T05:54:45;8.13;;;7.63;;
23590;SDS011;11973;52.098;7.582;2022-08-21T05:57:11;8.60;;;7.85;;
23590;SDS011;11973;52.098;7.582;2022-08-21T05:59:36;8.55;;;7.88;;
23590;SDS011;11973;52.098;7.582;2022-08-21T06:02:03;8.48;;;7.85;;
23590;SDS011;11973;52.098;7.582;2022-08-21T06:04:29;9.07;;;8.23;;
23590;SDS011;11973;52.098;7.582;2022-08-21T06:06:55;9.02;;;8.32;;
23590;SDS011;11973;52.098;7.582;2022-08-21T06:09:20;8.48;;;7.75;;
23590;SDS011;11973;52.098;7.582;2022-08-21T06:11:46;8.35;;;7.65;;
23590;SDS011;11973;52.098;7.582;2022-08-21T06:14:15;11.15;;;8.77;;
23590;SDS011;11973;52.098;7.582;2022-08-21T06:16:41;9.23;;;8.60;;
23590;SDS011;11973;52.098;7.582;2022-08-21T06:19:07;8.73;;;8.20;;
23590;SDS011;11973;52.098;7.582;2022-08-21T06:21:33;9.38;;;8.45;;
23590;SDS011;11973;52.098;7.582;2022-08-21T06:23:58;8.02;;;7.32;;
23590;SDS011;11973;52.098;7.582;2022-08-21T06:26:24;8.20;;;7.60;;
23590;SDS011;11973;52.098;7.582;2022-08-21T06:28:50;9.80;;;7.82;;
23590;SDS011;11973;52.098;7.582;2022-08-21T06:31:17;8.73;;;7.90;;
23590;SDS011;11973;52.098;7.582;2022-08-21T06:33:45;8.18;;;7.35;;
23590;SDS011;11973;52.098;7.582;2022-08-21T06:36:11;7.80;;;7.00;;
23590;SDS011;11973;52.098;7.582;2022-08-21T06:38:37;6.70;;;6.10;;
23590;SDS011;11973;52.098;7.582;2022-08-21T06:41:03;6.32;;;5.82;;
23590;SDS011;11973;52.098;7.582;2022-08-21T06:43:30;6.75;;;6.32;;
23590;SDS011;11973;52.098;7.582;2022-08-21T06:45:56;5.45;;;5.15;;
23590;SDS011;11973;52.098;7.582;2022-08-21T06:48:22;6.03;;;5.53;;
23590;SDS011;11973;52.098;7.582;2022-08-21T06:50:48;5.20;;;4.80;;
23590;SDS011;11973;52.098;7.582;2022-08-21T06:53:15;5.00;;;4.78;;
23590;SDS011;11973;52.098;7.582;2022-08-21T06:55:43;4.97;;;4.60;;
23590;SDS011;11973;52.098;7.582;2022-08-21T06:58:09;8.05;;;4.90;;
23590;SDS011;11973;52.098;7.582;2022-08-21T07:00:41;5.25;;;4.78;;
23590;SDS011;11973;52.098;7.582;2022-08-21T07:03:16;5.25;;;4.60;;
23590;SDS011;11973;52.098;7.582;2022-08-21T07:05:53;5.05;;;4.60;;
23590;SDS011;11973;52.098;7.582;2022-08-21T07:08:20;5.05;;;4.35;;
23590;SDS011;11973;52.098;7.582;2022-08-21T07:10:46;6.35;;;3.95;;
23590;SDS011;11973;52.098;7.582;2022-08-21T07:13:13;4.32;;;3.60;;
23590;SDS011;11973;52.098;7.582;2022-08-21T07:15:39;4.05;;;3.75;;
23590;SDS011;11973;52.098;7.582;2022-08-21T07:18:06;7.07;;;4.18;;
23590;SDS011;11973;52.098;7.582;2022-08-21T07:20:32;3.35;;;3.15;;
23590;SDS011;11973;52.098;7.582;2022-08-21T07:23:00;3.28;;;3.08;;
23590;SDS011;11973;52.098;7.582;2022-08-21T07:25:28;2.72;;;2.53;;
23590;SDS011;11973;52.098;7.582;2022-08-21T07:27:54;3.28;;;2.55;;
23590;SDS011;11973;52.098;7.582;2022-08-21T07:30:20;4.18;;;2.15;;
23590;SDS011;11973;52.098;7.582;2022-08-21T07:32:46;4.40;;;2.58;;
23590;SDS011;11973;52.098;7.582;2022-08-21T07:35:14;2.17;;;1.98;;
23590;SDS011;11973;52.098;7.582;2022-08-21T07:37:41;2.78;;;2.40;;
23590;SDS011;11973;52.098;7.582;2022-08-21T07:40:06;2.92;;;2.72;;
23590;SDS011;11973;52.098;7.582;2022-08-21T07:42:33;5.63;;;2.70;;
23590;SDS011;11973;52.098;7.582;2022-08-21T07:44:58;1.92;;;1.83;;
23590;SDS011;11973;52.098;7.582;2022-08-21T07:47:24;1.90;;;1.80;;
23590;SDS011;11973;52.098;7.582;2022-08-21T07:49:50;2.05;;;1.95;;
23590;SDS011;11973;52.098;7.582;2022-08-21T07:52:15;3.05;;;2.75;;
23590;SDS011;11973;52.098;7.582;2022-08-21T07:54:41;3.60;;;2.00;;
23590;SDS011;11973;52.098;7.582;2022-08-21T07:57:07;1.27;;;1.27;;
23590;SDS011;11973;52.098;7.582;2022-08-21T07:59:33;2.13;;;1.95;;
23590;SDS011;11973;52.098;7.582;2022-08-21T08:01:58;2.50;;;1.60;;
23590;SDS011;11973;52.098;7.582;2022-08-21T08:04:24;1.48;;;1.40;;
23590;SDS011;11973;52.098;7.582;2022-08-21T08:06:50;2.10;;;1.67;;
23590;SDS011;11973;52.098;7.582;2022-08-21T08:09:16;3.65;;;1.98;;
23590;SDS011;11973;52.098;7.582;2022-08-21T08:11:42;2.47;;;2.28;;
23590;SDS011;11973;52.098;7.582;2022-08-21T08:14:09;2.13;;;2.03;;
23590;SDS011;11973;52.098;7.582;2022-08-21T08:16:35;6.43;;;3.05;;
23590;SDS011;11973;52.098;7.582;2022-08-21T08:19:00;4.00;;;3.78;;
23590;SDS011;11973;52.098;7.582;2022-08-21T08:21:26;4.28;;;3.88;;
23590;SDS011;11973;52.098;7.582;2022-08-21T08:23:52;4.25;;;3.85;;
23590;SDS011;11973;52.098;7.582;2022-08-21T08:26:18;4.78;;;4.35;;
23590;SDS011;11973;52.098;7.582;2022-08-21T08:28:44;7.03;;;4.22;;
23590;SDS011;11973;52.098;7.582;2022-08-21T08:31:12;4.90;;;4.60;;
23590;SDS011;11973;52.098;7.582;2022-08-21T08:33:39;6.13;;;5.53;;
23590;SDS011;11973;52.098;7.582;2022-08-21T08:36:05;10.80;;;6.32;;
23590;SDS011;11973;52.098;7.582;2022-08-21T08:38:37;6.72;;;6.03;;
23590;SDS011;11973;52.098;7.582;2022-08-21T08:43:34;6.45;;;5.80;;
23590;SDS011;11973;52.098;7.582;2022-08-21T08:46:14;12.75;;;6.78;;
23590;SDS011;11973;52.098;7.582;2022-08-21T08:48:50;7.72;;;6.70;;
23590;SDS011;11973;52.098;7.582;2022-08-21T08:51:48;9.50;;;7.07;;
23590;SDS011;11973;52.098;7.582;2022-08-21T08:54:19;9.45;;;6.47;;
23590;SDS011;11973;52.098;7.582;2022-08-21T08:56:51;7.00;;;6.38;;
23590;SDS011;11973;52.098;7.582;2022-08-21T08:59:20;6.95;;;5.63;;
23590;SDS011;11973;52.098;7.582;2022-08-21T09:01:52;6.82;;;6.43;;
23590;SDS011;11973;52.098;7.582;2022-08-21T09:04:20;11.65;;;6.22;;
23590;SDS011;11973;52.098;7.582;2022-08-21T09:14:41;8.07;;;5.60;;
23590;SDS011;11973;52.098;7.582;2022-08-21T09:17:19;4.95;;;4.65;;
23590;SDS011;11973;52.098;7.582;2022-08-21T09:20:18;5.00;;;3.72;;
23590;SDS011;11973;52.098;7.582;2022-08-21T09:25:24;3.78;;;3.63;;
23590;SDS011;11973;52.098;7.582;2022-08-21T09:27:52;3.90;;;3.53;;
23590;SDS011;11973;52.098;7.582;2022-08-21T09:30:19;3.53;;;3.22;;
23590;SDS011;11973;52.098;7.582;2022-08-21T09:32:51;4.50;;;3.35;;
23590;SDS011;11973;52.098;7.582;2022-08-21T09:35:17;3.17;;;3.10;;
23590;SDS011;11973;52.098;7.582;2022-08-21T09:37:47;3.03;;;2.72;;
23590;SDS011;11973;52.098;7.582;2022-08-21T09:40:27;2.90;;;2.15;;
23590;SDS011;11973;52.098;7.582;2022-08-21T09:42:58;3.10;;;2.30;;
23590;SDS011;11973;52.098;7.582;2022-08-21T09:45:26;3.20;;;2.17;;
23590;SDS011;11973;52.098;7.582;2022-08-21T09:47:52;4.75;;;2.30;;
23590;SDS011;11973;52.098;7.582;2022-08-21T09:50:23;2.22;;;1.73;;
23590;SDS011;11973;52.098;7.582;2022-08-21T09:52:53;2.58;;;1.90;;
23590;SDS011;11973;52.098;7.582;2022-08-21T09:58:10;2.88;;;1.98;;
23590;SDS011;11973;52.098;7.582;2022-08-21T10:00:36;3.17;;;2.20;;
23590;SDS011;11973;52.098;7.582;2022-08-21T10:03:10;2.35;;;2.25;;
23590;SDS011;11973;52.098;7.582;2022-08-21T10:05:59;2.95;;;2.20;;
23590;SDS011;11973;52.098;7.582;2022-08-21T10:08:30;2.78;;;2.10;;
23590;SDS011;11973;52.098;7.582;2022-08-21T10:11:31;2.22;;;2.03;;
23590;SDS011;11973;52.098;7.582;2022-08-21T10:16:42;3.35;;;1.95;;
23590;SDS011;11973;52.098;7.582;2022-08-21T10:19:26;3.28;;;1.85;;
23590;SDS011;11973;52.098;7.582;2022-08-21T10:30:25;3.05;;;1.70;;
23590;SDS011;11973;52.098;7.582;2022-08-21T10:33:43;2.70;;;1.30;;
23590;SDS011;11973;52.098;7.582;2022-08-21T10:35:51;3.70;;;1.63;;
23590;SDS011;11973;52.098;7.582;2022-08-21T10:44:11;1.40;;;1.30;;
23590;SDS011;11973;52.098;7.582;2022-08-21T10:47:01;1.33;;;1.23;;
23590;SDS011;11973;52.098;7.582;2022-08-21T10:52:32;1.10;;;1.05;;
23590;SDS011;11973;52.098;7.582;2022-08-21T10:57:45;0.70;;;0.70;;
23590;SDS011;11973;52.098;7.582;2022-08-21T11:03:08;0.90;;;0.90;;
23590;SDS011;11973;52.098;7.582;2022-08-21T11:08:15;1.30;;;0.98;;
23590;SDS011;11973;52.098;7.582;2022-08-21T11:10:59;1.08;;;0.98;;
23590;SDS011;11973;52.098;7.582;2022-08-21T11:13:40;0.90;;;0.90;;
23590;SDS011;11973;52.098;7.582;2022-08-21T11:29:37;0.77;;;0.73;;
23590;SDS011;11973;52.098;7.582;2022-08-21T11:37:24;3.15;;;0.90;;
23590;SDS011;11973;52.098;7.582;2022-08-21T11:40:15;1.17;;;0.93;;
23590;SDS011;11973;52.098;7.582;2022-08-21T11:42:50;3.22;;;0.85;;
23590;SDS011;11973;52.098;7.582;2022-08-21T11:45:27;5.35;;;1.00;;
23590;SDS011;11973;52.098;7.582;2022-08-21T11:50:53;0.60;;;0.60;;
23590;SDS011;11973;52.098;7.582;2022-08-21T11:53:26;0.47;;;0.47;;
23590;SDS011;11973;52.098;7.582;2022-08-21T11:56:14;1.55;;;0.80;;
23590;SDS011;11973;52.098;7.582;2022-08-21T11:58:56;1.30;;;0.68;;
23590;SDS011;11973;52.098;7.582;2022-08-21T12:01:28;1.67;;;0.80;;
23590;SDS011;11973;52.098;7.582;2022-08-21T12:04:01;0.68;;;0.68;;
23590;SDS011;11973;52.098;7.582;2022-08-21T12:06:32;0.70;;;0.70;;
23590;SDS011;11973;52.098;7.582;2022-08-21T12:09:05;0.60;;;0.60;;
23590;SDS011;11973;52.098;7.582;2022-08-21T12:12:00;0.75;;;0.60;;
23590;SDS011;11973;52.098;7.582;2022-08-21T12:14:35;0.68;;;0.50;;
23590;SDS011;11973;52.098;7.582;2022-08-21T12:17:22;0.68;;;0.68;;
23590;SDS011;11973;52.098;7.582;2022-08-21T12:20:15;1.60;;;0.60;;
23590;SDS011;11973;52.098;7.582;2022-08-21T12:22:50;1.17;;;0.57;;
23590;SDS011;11973;52.098;7.582;2022-08-21T12:25:36;0.85;;;0.85;;
23590;SDS011;11973;52.098;7.582;2022-08-21T12:28:06;0.57;;;0.50;;
23590;SDS011;11973;52.098;7.582;2022-08-21T12:30:35;0.60;;;0.60;;
23590;SDS011;11973;52.098;7.582;2022-08-21T12:35:44;0.73;;;0.73;;
23590;SDS011;11973;52.098;7.582;2022-08-21T12:38:26;0.95;;;0.63;;
23590;SDS011;11973;52.098;7.582;2022-08-21T12:41:01;0.50;;;0.50;;
23590;SDS011;11973;52.098;7.582;2022-08-21T12:43:40;0.85;;;0.50;;
23590;SDS011;11973;52.098;7.582;2022-08-21T12:46:21;1.55;;;0.57;;
23590;SDS011;11973;52.098;7.582;2022-08-21T12:51:46;0.85;;;0.85;;
23590;SDS011;11973;52.098;7.582;2022-08-21T12:54:24;0.60;;;0.60;;
23590;SDS011;11973;52.098;7.582;2022-08-21T12:57:00;0.85;;;0.60;;
23590;SDS011;11973;52.098;7.582;2022-08-21T12:59:27;0.52;;;0.52;;
23590;SDS011;11973;52.098;7.582;2022-08-21T13:01:54;1.65;;;0.50;;
23590;SDS011;11973;52.098;7.582;2022-08-21T13:04:22;0.45;;;0.43;;
23590;SDS011;11973;52.098;7.582;2022-08-21T13:07:05;1.20;;;0.70;;
23590;SDS011;11973;52.098;7.582;2022-08-21T13:09:35;2.00;;;0.60;;
23590;SDS011;11973;52.098;7.582;2022-08-21T13:12:07;0.52;;;0.52;;
23590;SDS011;11973;52.098;7.582;2022-08-21T13:14:43;2.20;;;0.60;;
23590;SDS011;11973;52.098;7.582;2022-08-21T13:17:12;1.30;;;0.52;;
23590;SDS011;11973;52.098;7.582;2022-08-21T13:19:40;0.70;;;0.70;;
23590;SDS011;11973;52.098;7.582;2022-08-21T13:22:12;1.95;;;0.70;;
23590;SDS011;11973;52.098;7.582;2022-08-21T13:24:39;0.75;;;0.73;;
23590;SDS011;11973;52.098;7.582;2022-08-21T13:27:15;0.63;;;0.63;;
23590;SDS011;11973;52.098;7.582;2022-08-21T13:30:06;0.70;;;0.70;;
23590;SDS011;11973;52.098;7.582;2022-08-21T13:32:43;1.25;;;0.90;;
23590;SDS011;11973;52.098;7.582;2022-08-21T13:35:17;0.93;;;0.60;;
23590;SDS011;11973;52.098;7.582;2022-08-21T13:37:50;0.95;;;0.60;;
23590;SDS011;11973;52.098;7.582;2022-08-21T13:40:19;0.40;;;0.40;;
23590;SDS011;11973;52.098;7.582;2022-08-21T13:42:49;0.68;;;0.68;;
23590;SDS011;11973;52.098;7.582;2022-08-21T13:45:22;1.95;;;0.65;;
23590;SDS011;11973;52.098;7.582;2022-08-21T13:47:52;4.40;;;0.73;;
23590;SDS011;11973;52.098;7.582;2022-08-21T13:50:20;0.93;;;0.60;;
23590;SDS011;11973;52.098;7.582;2022-08-21T13:52:59;1.10;;;0.90;;
23590;SDS011;11973;52.098;7.582;2022-08-21T13:55:33;0.80;;;0.80;;
23590;SDS011;11973;52.098;7.582;2022-08-21T13:58:07;1.13;;;0.60;;
23590;SDS011;11973;52.098;7.582;2022-08-21T14:00:34;1.02;;;0.93;;
23590;SDS011;11973;52.098;7.582;2022-08-21T14:03:09;1.80;;;1.00;;
23590;SDS011;11973;52.098;7.582;2022-08-21T14:05:37;1.45;;;0.90;;
23590;SDS011;11973;52.098;7.582;2022-08-21T14:08:14;0.90;;;0.80;;
23590;SDS011;11973;52.098;7.582;2022-08-21T14:10:57;1.13;;;0.90;;
23590;SDS011;11973;52.098;7.582;2022-08-21T14:16:26;0.73;;;0.63;;
23590;SDS011;11973;52.098;7.582;2022-08-21T14:21:32;1.20;;;1.00;;
23590;SDS011;11973;52.098;7.582;2022-08-21T14:24:07;1.15;;;0.90;;
23590;SDS011;11973;52.098;7.582;2022-08-21T14:26:34;1.42;;;0.80;;
23590;SDS011;11973;52.098;7.582;2022-08-21T14:29:02;1.63;;;0.88;;
23590;SDS011;11973;52.098;7.582;2022-08-21T14:31:33;1.45;;;0.80;;
23590;SDS011;11973;52.098;7.582;2022-08-21T14:34:00;0.95;;;0.95;;
23590;SDS011;11973;52.098;7.582;2022-08-21T14:36:26;0.68;;;0.68;;
23590;SDS011;11973;52.098;7.582;2022-08-21T14:38:52;1.15;;;1.00;;
23590;SDS011;11973;52.098;7.582;2022-08-21T14:41:19;1.48;;;0.77;;
23590;SDS011;11973;52.098;7.582;2022-08-21T14:43:48;2.13;;;0.90;;
23590;SDS011;11973;52.098;7.582;2022-08-21T14:46:18;1.05;;;1.05;;
23590;SDS011;11973;52.098;7.582;2022-08-21T14:48:48;0.60;;;0.60;;
23590;SDS011;11973;52.098;7.582;2022-08-21T14:51:14;0.90;;;0.85;;
23590;SDS011;11973;52.098;7.582;2022-08-21T14:53:40;0.90;;;0.90;;
23590;SDS011;11973;52.098;7.582;2022-08-21T14:56:06;1.63;;;1.00;;
23590;SDS011;11973;52.098;7.582;2022-08-21T14:58:32;1.20;;;1.00;;
23590;SDS011;11973;52.098;7.582;2022-08-21T15:01:04;0.80;;;0.80;;
23590;SDS011;11973;52.098;7.582;2022-08-21T15:03:34;0.90;;;0.90;;
23590;SDS011;11973;52.098;7.582;2022-08-21T15:06:01;2.00;;;1.00;;
23590;SDS011;11973;52.098;7.582;2022-08-21T15:08:28;1.23;;;1.13;;
23590;SDS011;11973;52.098;7.582;2022-08-21T15:10:53;1.10;;;0.90;;
23590;SDS011;11973;52.098;7.582;2022-08-21T15:13:20;0.80;;;0.80;;
23590;SDS011;11973;52.098;7.582;2022-08-21T15:15:47;0.80;;;0.80;;
23590;SDS011;11973;52.098;7.582;2022-08-21T15:18:15;3.33;;;0.80;;
23590;SDS011;11973;52.098;7.582;2022-08-21T15:20:41;0.70;;;0.70;;
23590;SDS011;11973;52.098;7.582;2022-08-21T15:23:07;2.35;;;0.80;;
23590;SDS011;11973;52.098;7.582;2022-08-21T15:25:34;1.17;;;1.02;;
23590;SDS011;11973;52.098;7.582;2022-08-21T15:28:01;1.13;;;0.90;;
23590;SDS011;11973;52.098;7.582;2022-08-21T15:30:28;2.20;;;0.95;;
23590;SDS011;11973;52.098;7.582;2022-08-21T15:32:55;1.60;;;1.60;;
23590;SDS011;11973;52.098;7.582;2022-08-21T15:35:21;1.23;;;1.23;;
23590;SDS011;11973;52.098;7.582;2022-08-21T15:37:47;1.08;;;0.70;;
23590;SDS011;11973;52.098;7.582;2022-08-21T15:40:12;1.40;;;1.02;;
23590;SDS011;11973;52.098;7.582;2022-08-21T15:42:39;0.77;;;0.77;;
23590;SDS011;11973;52.098;7.582;2022-08-21T15:45:06;1.30;;;0.80;;
23590;SDS011;11973;52.098;7.582;2022-08-21T15:47:34;0.80;;;0.80;;
23590;SDS011;11973;52.098;7.582;2022-08-21T15:50:02;1.38;;;1.30;;
23590;SDS011;11973;52.098;7.582;2022-08-21T15:52:30;1.50;;;1.13;;
23590;SDS011;11973;52.098;7.582;2022-08-21T15:54:56;0.68;;;0.68;;
23590;SDS011;11973;52.098;7.582;2022-08-21T15:57:22;0.88;;;0.80;;
23590;SDS011;11973;52.098;7.582;2022-08-21T15:59:50;1.23;;;0.80;;
23590;SDS011;11973;52.098;7.582;2022-08-21T16:02:37;1.10;;;0.93;;
23590;SDS011;11973;52.098;7.582;2022-08-21T16:05:06;1.10;;;1.10;;
23590;SDS011;11973;52.098;7.582;2022-08-21T16:07:35;4.88;;;0.80;;
23590;SDS011;11973;52.098;7.582;2022-08-21T16:10:01;2.08;;;0.95;;
23590;SDS011;11973;52.098;7.582;2022-08-21T16:12:29;1.50;;;1.08;;
23590;SDS011;11973;52.098;7.582;2022-08-21T16:14:57;1.10;;;0.75;;
23590;SDS011;11973;52.098;7.582;2022-08-21T16:17:25;1.00;;;1.00;;
23590;SDS011;11973;52.098;7.582;2022-08-21T16:19:54;2.72;;;1.15;;
23590;SDS011;11973;52.098;7.582;2022-08-21T16:22:21;0.75;;;0.75;;
23590;SDS011;11973;52.098;7.582;2022-08-21T16:24:46;1.17;;;1.05;;
23590;SDS011;11973;52.098;7.582;2022-08-21T16:27:12;1.42;;;1.42;;
23590;SDS011;11973;52.098;7.582;2022-08-21T16:29:38;1.80;;;1.73;;
23590;SDS011;11973;52.098;7.582;2022-08-21T16:32:04;1.40;;;1.33;;
23590;SDS011;11973;52.098;7.582;2022-08-21T16:34:30;0.75;;;0.75;;
23590;SDS011;11973;52.098;7.582;2022-08-21T16:36:56;0.93;;;0.88;;
23590;SDS011;11973;52.098;7.582;2022-08-21T16:39:22;0.98;;;0.60;;
23590;SDS011;11973;52.098;7.582;2022-08-21T16:41:48;0.90;;;0.90;;
23590;SDS011;11973;52.098;7.582;2022-08-21T16:44:15;1.15;;;0.70;;
23590;SDS011;11973;52.098;7.582;2022-08-21T16:46:41;1.02;;;0.60;;
23590;SDS011;11973;52.098;7.582;2022-08-21T16:49:07;0.95;;;0.70;;
23590;SDS011;11973;52.098;7.582;2022-08-21T16:51:34;1.58;;;0.80;;
23590;SDS011;11973;52.098;7.582;2022-08-21T16:54:01;1.20;;;1.10;;
23590;SDS011;11973;52.098;7.582;2022-08-21T16:56:27;0.60;;;0.60;;
23590;SDS011;11973;52.098;7.582;2022-08-21T16:58:54;2.15;;;0.73;;
23590;SDS011;11973;52.098;7.582;2022-08-21T17:01:23;0.95;;;0.95;;
23590;SDS011;11973;52.098;7.582;2022-08-21T17:03:52;1.20;;;1.13;;
23590;SDS011;11973;52.098;7.582;2022-08-21T17:06:19;0.90;;;0.90;;
23590;SDS011;11973;52.098;7.582;2022-08-21T17:08:45;0.60;;;0.60;;
23590;SDS011;11973;52.098;7.582;2022-08-21T17:11:15;0.68;;;0.68;;
23590;SDS011;11973;52.098;7.582;2022-08-21T17:14:03;1.63;;;0.77;;
23590;SDS011;11973;52.098;7.582;2022-08-21T17:16:33;0.82;;;0.70;;
23590;SDS011;11973;52.098;7.582;2022-08-21T17:19:00;0.82;;;0.63;;